Williamsburg, Missouri
Current Conditions -  °F | °C
As of 9:54 AM on Wednesday 26 Nov 2014 (Local Time) from KCOU Reporting Station
Overcast Overcast  
Wind Chill: 30°   Ceiling: 700
Heat Index: 34°   Visibility: 10mi
Dew Point: 33°   Wind: 5mph
Humidity: 96%   Direction: 190°S
Pressure: 29.96"   Gusts: NA
Location:  38.92°N, 91.7°W
Report Text: KCOU 261554Z 19004KT 10SM OVC007 01/01 A2996 RMK AO2 SNE31 CIG 005V010 SLP151 P0001 T00110006
Loading
Personal Weather Stations






























Interactive Weather Map New forecast layout! Learn more

10-Day Weather Forecast

Advertisements
Track Severe Weather on mobile